Time;durP1;ratioP1;P1;durP2;ratioP2;P2;SDS_P1;SDS_P2;PMS_P1;PMS_P2;Temp;Humidity;BMP_temperature;BMP_pressure;BME280_temperature;BME280_humidity;BME280_pressure;Samples;Min_cycle;Max_cycle;Signal;HPM_P1;HPM_P2
2022/09/02 00:01:35;;;;;;;3.67;2.20;;;15.10;99.90;;;;;;5112931;28;20176;-68
2022/09/02 00:04:05;;;;;;;2.88;1.98;;;15.00;99.90;;;;;;5113432;28;20202;-68
2022/09/02 00:06:31;;;;;;;3.80;2.17;;;14.90;99.90;;;;;;5112799;28;20206;-68
2022/09/02 00:08:58;;;;;;;2.10;2.00;;;14.80;99.90;;;;;;5114251;28;20664;-68
2022/09/02 00:11:26;;;;;;;2.05;1.95;;;14.80;99.90;;;;;;5114155;28;20233;-68
2022/09/02 00:13:53;;;;;;;2.45;2.25;;;14.60;99.90;;;;;;5114068;28;20175;-68
2022/09/02 00:16:21;;;;;;;4.32;2.17;;;14.60;99.90;;;;;;5114193;28;20188;-68
2022/09/02 00:18:47;;;;;;;2.20;2.00;;;14.60;99.90;;;;;;5114517;28;20180;-68
2022/09/02 00:21:14;;;;;;;2.40;2.20;;;14.60;99.90;;;;;;5114164;28;20576;-68
2022/09/02 00:23:42;;;;;;;2.47;2.13;;;14.60;99.90;;;;;;5113873;28;20179;-68
2022/09/02 00:26:09;;;;;;;2.38;2.10;;;14.50;99.90;;;;;;5114069;28;20258;-69
2022/09/02 00:28:34;;;;;;;2.10;2.00;;;14.50;99.90;;;;;;5114378;28;20219;-68
2022/09/02 00:31:00;;;;;;;3.30;2.30;;;14.40;99.90;;;;;;5114140;28;20637;-69
2022/09/02 00:33:26;;;;;;;3.22;2.40;;;14.30;99.90;;;;;;5113857;28;20169;-68
2022/09/02 00:35:52;;;;;;;2.30;2.10;;;14.20;99.90;;;;;;5113792;28;20665;-68
2022/09/02 00:38:18;;;;;;;3.00;2.03;;;14.20;99.90;;;;;;5112542;28;20290;-68
2022/09/02 00:40:48;;;;;;;2.30;2.10;;;14.20;99.90;;;;;;5118261;28;20657;-69
2022/09/02 00:43:44;;;;;;;2.72;2.53;;;14.20;99.90;;;;;;5117872;28;20178;-68
2022/09/02 00:46:12;;;;;;;5.85;2.33;;;14.10;99.90;;;;;;5117627;28;20255;-68
2022/09/02 00:48:42;;;;;;;2.50;2.30;;;14.10;99.90;;;;;;5118105;28;20196;-68
2022/09/02 00:51:08;;;;;;;4.40;2.60;;;14.00;99.90;;;;;;5116449;28;20169;-68
2022/09/02 00:53:38;;;;;;;3.28;2.47;;;14.00;99.90;;;;;;5117456;28;20168;-68
2022/09/02 00:56:06;;;;;;;2.78;2.30;;;14.00;99.90;;;;;;5117536;28;20276;-69
2022/09/02 00:58:35;;;;;;;2.30;2.10;;;14.00;99.90;;;;;;5116112;28;20196;-68
2022/09/02 01:01:01;;;;;;;2.20;2.03;;;14.00;99.90;;;;;;5116234;28;20172;-68
2022/09/02 01:03:31;;;;;;;4.68;2.40;;;13.90;99.90;;;;;;5115929;28;20580;-68
2022/09/02 01:05:58;;;;;;;3.38;2.35;;;13.90;99.90;;;;;;5116308;28;20541;-68
2022/09/02 01:08:28;;;;;;;4.45;2.30;;;13.90;99.90;;;;;;5117106;28;20287;-68
2022/09/02 01:10:55;;;;;;;2.65;2.10;;;13.80;99.90;;;;;;5117785;28;20565;-68
2022/09/02 01:13:26;;;;;;;2.35;2.08;;;13.80;99.90;;;;;;5116089;28;20176;-68
2022/09/02 01:15:55;;;;;;;2.75;2.50;;;13.70;99.90;;;;;;5118288;28;20189;-68
2022/09/02 01:18:28;;;;;;;2.55;2.35;;;13.70;99.90;;;;;;5117175;28;20169;-70
2022/09/02 01:20:55;;;;;;;3.28;2.17;;;13.60;99.90;;;;;;5116020;28;20199;-68
2022/09/02 01:23:21;;;;;;;4.97;2.88;;;13.50;99.90;;;;;;5116806;28;20229;-68
2022/09/02 01:25:47;;;;;;;2.72;2.20;;;13.50;99.90;;;;;;5117016;28;20192;-68
2022/09/02 01:28:17;;;;;;;2.50;2.30;;;13.40;99.90;;;;;;5115512;28;20212;-69
2022/09/02 01:30:48;;;;;;;5.40;2.33;;;13.40;99.90;;;;;;5115714;28;20255;-68
2022/09/02 01:33:15;;;;;;;2.50;2.33;;;13.40;99.90;;;;;;5117400;28;20252;-68
2022/09/02 01:35:42;;;;;;;3.63;2.63;;;13.40;99.90;;;;;;5117067;28;20184;-68
2022/09/02 01:38:08;;;;;;;3.17;2.40;;;13.40;99.90;;;;;;5116725;28;20180;-68
2022/09/02 01:40:34;;;;;;;2.67;2.13;;;13.40;99.90;;;;;;5117083;28;20183;-68
2022/09/02 01:43:11;;;;;;;2.50;2.30;;;13.40;99.90;;;;;;5117881;28;20173;-69
2022/09/02 01:45:39;;;;;;;2.72;2.40;;;13.20;99.90;;;;;;5116424;28;20203;-69
2022/09/02 01:48:06;;;;;;;2.50;2.28;;;13.20;99.90;;;;;;5117608;28;20672;-69
2022/09/02 01:50:32;;;;;;;4.78;2.33;;;13.10;99.90;;;;;;5115667;28;20664;-70
2022/09/02 01:53:02;;;;;;;2.92;2.47;;;13.10;99.90;;;;;;5115324;28;20168;-68
2022/09/02 01:55:29;;;;;;;2.70;2.50;;;13.00;99.90;;;;;;5116368;28;20681;-68
2022/09/02 01:57:55;;;;;;;3.00;2.50;;;13.00;99.90;;;;;;5116438;28;20180;-69
2022/09/02 02:00:21;;;;;;;3.67;2.58;;;13.00;99.90;;;;;;5114893;28;20172;-67
2022/09/02 02:02:47;;;;;;;4.05;2.83;;;13.00;99.90;;;;;;5115101;28;20177;-68
2022/09/02 02:05:14;;;;;;;2.75;2.22;;;13.00;99.90;;;;;;5116285;28;20232;-68
2022/09/02 02:07:41;;;;;;;2.60;2.40;;;12.90;99.90;;;;;;5116164;28;20289;-69
2022/09/02 02:10:09;;;;;;;3.42;2.50;;;12.90;99.90;;;;;;5115946;28;20197;-69
2022/09/02 02:12:36;;;;;;;3.00;2.70;;;13.00;99.90;;;;;;5114764;28;20180;-68
2022/09/02 02:15:07;;;;;;;2.50;2.30;;;13.00;99.90;;;;;;5115893;28;20244;-68
2022/09/02 02:17:33;;;;;;;4.10;2.55;;;13.00;99.90;;;;;;5115973;28;20173;-69
2022/09/02 02:19:59;;;;;;;3.53;2.65;;;12.90;99.90;;;;;;5114886;28;20192;-68
2022/09/02 02:22:26;;;;;;;2.90;2.47;;;12.80;99.90;;;;;;5115853;28;20548;-70
2022/09/02 02:24:52;;;;;;;3.70;2.50;;;12.80;99.90;;;;;;5115543;28;20172;-68
2022/09/02 02:27:18;;;;;;;4.57;2.40;;;12.70;99.90;;;;;;5115930;28;20567;-68
2022/09/02 02:29:44;;;;;;;2.97;2.70;;;12.80;99.90;;;;;;5115745;28;20172;-68
2022/09/02 02:32:10;;;;;;;3.03;2.75;;;12.80;99.90;;;;;;5116000;28;20214;-68
2022/09/02 02:34:36;;;;;;;3.40;2.47;;;12.80;99.90;;;;;;5115632;28;20222;-68
2022/09/02 02:37:02;;;;;;;3.13;2.60;;;12.80;99.90;;;;;;5115721;28;20168;-68
2022/09/02 02:39:27;;;;;;;3.10;2.70;;;12.70;99.90;;;;;;5116340;28;20501;-68
2022/09/02 02:41:53;;;;;;;2.92;2.70;;;12.70;99.90;;;;;;5116010;28;20165;-68
2022/09/02 02:44:19;;;;;;;4.90;2.90;;;12.80;99.90;;;;;;5115728;28;20517;-68
2022/09/02 02:46:45;;;;;;;3.87;3.00;;;12.80;99.90;;;;;;5115607;28;20677;-68
2022/09/02 02:49:11;;;;;;;2.60;2.40;;;12.70;99.90;;;;;;5115691;28;20172;-68
2022/09/02 02:51:38;;;;;;;2.80;2.60;;;12.70;99.90;;;;;;5115755;28;20164;-68
2022/09/02 02:54:04;;;;;;;2.90;2.60;;;12.70;99.90;;;;;;5115142;28;20653;-68
2022/09/02 02:56:31;;;;;;;3.10;2.80;;;12.70;99.90;;;;;;5115305;28;20648;-68
2022/09/02 02:58:58;;;;;;;3.73;2.63;;;12.70;99.90;;;;;;5113952;28;20187;-68
2022/09/02 03:01:24;;;;;;;2.50;2.30;;;12.70;99.90;;;;;;5115146;28;20193;-68
2022/09/02 03:03:51;;;;;;;4.75;2.70;;;12.70;99.90;;;;;;5115149;28;20720;-68
2022/09/02 03:06:17;;;;;;;2.95;2.65;;;12.70;99.90;;;;;;5114915;28;20673;-69
2022/09/02 03:08:43;;;;;;;2.83;2.63;;;12.70;99.90;;;;;;5114967;28;20199;-69
2022/09/02 03:11:09;;;;;;;5.10;2.50;;;12.70;99.90;;;;;;5114899;28;20172;-68
2022/09/02 03:13:35;;;;;;;2.60;2.40;;;12.70;99.90;;;;;;5115451;28;20179;-68
2022/09/02 03:16:02;;;;;;;2.93;2.50;;;12.70;99.90;;;;;;5114954;28;20188;-68
2022/09/02 03:18:28;;;;;;;3.87;2.67;;;12.70;99.90;;;;;;5114575;28;20217;-69
2022/09/02 03:20:54;;;;;;;2.70;2.50;;;12.60;99.90;;;;;;5115159;28;20161;-68
2022/09/02 03:23:20;;;;;;;3.13;2.43;;;12.60;99.90;;;;;;5114756;28;20251;-68
2022/09/02 03:25:45;;;;;;;5.10;2.83;;;12.70;99.90;;;;;;5114380;28;20262;-68
2022/09/02 03:28:12;;;;;;;3.75;2.70;;;12.70;99.90;;;;;;5113307;28;20572;-68
2022/09/02 03:30:40;;;;;;;4.78;2.90;;;12.60;99.90;;;;;;5115046;28;20247;-68
2022/09/02 03:33:06;;;;;;;2.77;2.57;;;12.50;99.90;;;;;;5115024;28;20204;-69
2022/09/02 03:35:37;;;;;;;4.80;2.78;;;12.60;99.90;;;;;;5114652;28;20184;-68
2022/09/02 03:38:03;;;;;;;3.73;2.73;;;12.60;99.90;;;;;;5113542;28;20180;-68
2022/09/02 03:40:29;;;;;;;3.43;2.80;;;12.60;99.90;;;;;;5114275;28;20169;-68
2022/09/02 03:42:55;;;;;;;3.23;2.57;;;12.60;99.90;;;;;;5114369;28;20176;-67
2022/09/02 03:45:21;;;;;;;4.03;2.70;;;12.60;99.90;;;;;;5114424;28;20195;-68
2022/09/02 03:47:53;;;;;;;4.60;2.90;;;12.50;99.90;;;;;;5114407;28;20196;-67
2022/09/02 03:50:21;;;;;;;4.13;3.10;;;12.60;99.90;;;;;;5114620;28;20236;-67
2022/09/02 03:52:48;;;;;;;6.13;3.23;;;12.50;99.90;;;;;;5113253;28;20177;-67
2022/09/02 03:55:14;;;;;;;5.28;2.92;;;12.50;99.90;;;;;;5114085;28;20194;-67
2022/09/02 03:57:40;;;;;;;4.07;3.07;;;12.50;99.90;;;;;;5114597;28;20334;-67
2022/09/02 04:00:08;;;;;;;3.35;2.90;;;12.50;99.90;;;;;;5114587;28;20188;-68
2022/09/02 04:02:34;;;;;;;3.85;2.80;;;12.50;99.90;;;;;;5114530;28;20225;-69
2022/09/02 04:05:00;;;;;;;4.73;3.40;;;12.50;99.90;;;;;;5114025;28;20267;-68
2022/09/02 04:07:26;;;;;;;4.85;2.97;;;12.50;99.90;;;;;;5114173;28;20688;-68
2022/09/02 04:09:53;;;;;;;4.37;2.70;;;12.50;99.90;;;;;;5112587;28;20173;-68
2022/09/02 04:12:18;;;;;;;3.53;2.97;;;12.50;99.90;;;;;;5114011;28;20255;-69
2022/09/02 04:14:44;;;;;;;4.33;3.03;;;12.50;99.90;;;;;;5117245;28;20706;-69
2022/09/02 04:17:10;;;;;;;5.90;2.93;;;12.50;99.90;;;;;;5118084;28;20222;-69
2022/09/02 04:19:36;;;;;;;3.00;2.80;;;12.50;99.90;;;;;;5116695;28;20206;-69
2022/09/02 04:22:02;;;;;;;4.07;2.70;;;12.60;99.90;;;;;;5118073;27;20525;-68
2022/09/02 04:24:28;;;;;;;2.60;2.40;;;12.60;99.90;;;;;;5117685;28;20177;-67
2022/09/02 04:26:54;;;;;;;4.23;3.00;;;12.60;99.90;;;;;;5116563;28;20290;-67
2022/09/02 04:29:20;;;;;;;5.53;3.00;;;12.50;99.90;;;;;;5117898;28;20180;-67
2022/09/02 04:31:46;;;;;;;4.87;2.80;;;12.60;99.90;;;;;;5117958;28;20173;-67
2022/09/02 04:34:12;;;;;;;3.43;2.70;;;12.60;99.90;;;;;;5118057;28;20164;-67
2022/09/02 04:36:37;;;;;;;3.00;2.70;;;12.60;99.90;;;;;;5117771;28;20185;-67
2022/09/02 04:39:03;;;;;;;3.57;2.90;;;12.60;99.90;;;;;;5116411;28;20176;-67
2022/09/02 04:41:29;;;;;;;3.10;2.70;;;12.50;99.90;;;;;;5116606;28;20592;-67
2022/09/02 04:43:57;;;;;;;3.17;2.87;;;12.60;99.90;;;;;;5117759;28;20173;-67
2022/09/02 04:46:23;;;;;;;3.03;2.73;;;12.50;99.90;;;;;;5117434;28;20196;-67
2022/09/02 04:48:50;;;;;;;6.00;2.70;;;12.60;99.90;;;;;;5117401;28;20216;-68
2022/09/02 04:51:21;;;;;;;3.57;2.80;;;12.60;99.90;;;;;;5117537;28;20251;-67
2022/09/02 04:53:49;;;;;;;4.03;2.80;;;12.60;99.90;;;;;;5117305;28;20167;-67
2022/09/02 04:56:20;;;;;;;4.80;3.00;;;12.70;99.90;;;;;;5117224;28;20203;-68
2022/09/02 04:58:46;;;;;;;4.10;2.77;;;12.70;99.90;;;;;;5117360;28;20188;-67
2022/09/02 05:01:15;;;;;;;4.70;2.90;;;12.80;99.90;;;;;;5117117;28;20180;-67
2022/09/02 05:03:45;;;;;;;3.33;2.50;;;12.80;99.90;;;;;;5116151;28;20200;-68
2022/09/02 05:06:15;;;;;;;3.57;2.50;;;12.90;99.90;;;;;;5116078;28;20227;-68
2022/09/02 05:08:41;;;;;;;2.97;2.70;;;12.90;99.90;;;;;;5115800;28;20198;-68
2022/09/02 05:11:08;;;;;;;3.83;2.90;;;13.00;99.90;;;;;;5117182;28;20173;-67
2022/09/02 05:13:34;;;;;;;2.70;2.50;;;13.00;99.90;;;;;;5117254;27;20656;-65
2022/09/02 05:16:01;;;;;;;4.33;2.83;;;13.10;99.90;;;;;;5115740;28;20192;-66
2022/09/02 05:18:27;;;;;;;2.67;2.43;;;13.20;99.90;;;;;;5116822;28;20257;-66
2022/09/02 05:20:53;;;;;;;3.40;2.60;;;13.20;99.90;;;;;;5117653;28;20204;-65
2022/09/02 05:23:18;;;;;;;3.30;2.57;;;13.30;99.90;;;;;;5115936;27;20225;-65
2022/09/02 05:25:44;;;;;;;2.87;2.57;;;13.30;99.90;;;;;;5115383;28;20232;-65
2022/09/02 05:28:10;;;;;;;2.73;2.50;;;13.40;99.90;;;;;;5115474;28;20232;-65
2022/09/02 05:30:38;;;;;;;4.20;2.72;;;13.40;99.90;;;;;;5115562;28;20180;-65
2022/09/02 05:33:05;;;;;;;5.10;2.70;;;13.40;99.90;;;;;;5117483;27;20164;-65
2022/09/02 05:35:31;;;;;;;6.38;2.95;;;13.50;99.90;;;;;;5116763;28;20195;-65
2022/09/02 05:37:57;;;;;;;4.38;2.75;;;13.60;99.90;;;;;;5115746;28;20180;-65
2022/09/02 05:40:23;;;;;;;4.28;3.00;;;13.60;99.90;;;;;;5115201;28;20179;-66
2022/09/02 05:42:49;;;;;;;3.20;2.90;;;13.60;99.90;;;;;;5117224;28;20176;-65
2022/09/02 05:45:22;;;;;;;4.40;2.90;;;13.70;99.90;;;;;;5117604;28;20708;-66
2022/09/02 05:47:48;;;;;;;3.47;2.90;;;13.70;99.90;;;;;;5116385;28;20262;-65
2022/09/02 05:50:15;;;;;;;3.90;2.70;;;13.80;99.90;;;;;;5118076;28;20168;-65
2022/09/02 05:52:41;;;;;;;4.15;3.13;;;13.80;99.90;;;;;;5118244;28;20191;-65
2022/09/02 05:55:08;;;;;;;3.42;3.08;;;13.90;99.90;;;;;;5116717;28;20191;-66
2022/09/02 05:57:34;;;;;;;4.20;3.00;;;14.00;99.90;;;;;;5116341;28;20173;-65
2022/09/02 06:00:00;;;;;;;4.20;2.95;;;14.10;99.90;;;;;;5115118;28;20187;-65
2022/09/02 06:02:26;;;;;;;3.60;3.00;;;14.20;99.90;;;;;;5116551;28;20653;-66
2022/09/02 06:04:54;;;;;;;3.80;3.10;;;14.30;99.90;;;;;;5116315;28;20168;-65
2022/09/02 06:07:22;;;;;;;2.90;2.60;;;14.40;99.90;;;;;;5116153;28;20192;-65
2022/09/02 06:09:48;;;;;;;4.38;3.08;;;14.50;99.90;;;;;;5115814;28;20168;-66
2022/09/02 06:12:17;;;;;;;3.75;2.90;;;14.60;99.90;;;;;;5116231;28;20506;-65
2022/09/02 06:14:43;;;;;;;5.07;3.03;;;14.80;99.90;;;;;;5114906;28;20176;-66
2022/09/02 06:17:09;;;;;;;5.60;3.03;;;14.90;99.90;;;;;;5115966;28;20543;-66
2022/09/02 06:19:35;;;;;;;3.63;2.28;;;15.00;99.90;;;;;;5116987;28;20604;-65
2022/09/02 06:22:03;;;;;;;3.42;2.70;;;15.10;99.90;;;;;;5116253;28;20637;-66
2022/09/02 06:24:29;;;;;;;4.78;2.40;;;15.30;99.90;;;;;;5114384;28;20177;-65
2022/09/02 06:26:57;;;;;;;2.72;2.50;;;15.40;99.90;;;;;;5116166;28;20196;-66
2022/09/02 06:29:24;;;;;;;3.40;2.53;;;15.60;99.90;;;;;;5115868;28;20234;-66
2022/09/02 06:31:50;;;;;;;2.72;2.20;;;15.70;99.90;;;;;;5115659;28;20175;-65
2022/09/02 06:34:18;;;;;;;4.38;2.60;;;15.80;99.90;;;;;;5115537;28;20168;-65
2022/09/02 06:36:46;;;;;;;4.00;2.60;;;15.90;99.90;;;;;;5115062;27;20192;-65
2022/09/02 06:39:15;;;;;;;4.80;2.75;;;16.10;99.90;;;;;;5115494;28;20225;-65
2022/09/02 06:41:42;;;;;;;3.22;2.22;;;16.10;99.90;;;;;;5113850;28;20184;-66
2022/09/02 06:44:11;;;;;;;2.60;2.40;;;16.20;99.90;;;;;;5115386;28;20176;-66
2022/09/02 06:46:42;;;;;;;2.92;2.55;;;16.10;99.90;;;;;;5113789;28;20192;-65
2022/09/02 06:49:08;;;;;;;4.65;2.38;;;16.10;99.90;;;;;;5115338;28;20263;-66
2022/09/02 06:51:40;;;;;;;2.63;2.20;;;16.10;99.90;;;;;;5115420;28;20175;-66
2022/09/02 06:54:08;;;;;;;2.50;2.30;;;16.10;99.90;;;;;;5114093;28;20318;-65
2022/09/02 06:56:34;;;;;;;2.55;2.35;;;16.10;99.90;;;;;;5114962;28;20199;-65
2022/09/02 06:59:00;;;;;;;2.53;2.10;;;16.10;99.90;;;;;;5115198;28;20180;-66
2022/09/02 07:01:29;;;;;;;2.60;2.40;;;16.20;99.90;;;;;;5115352;28;20652;-66
2022/09/02 07:06:46;;;;;;;6.28;2.38;;;16.30;99.90;;;;;;5115115;28;20739;-66
2022/09/02 07:09:16;;;;;;;2.97;2.53;;;16.40;99.90;;;;;;5113683;28;20196;-66
2022/09/02 07:11:46;;;;;;;3.28;2.40;;;16.40;99.90;;;;;;5113721;28;20233;-66
2022/09/02 07:14:19;;;;;;;3.55;2.45;;;16.50;99.90;;;;;;5114856;28;20633;-66
2022/09/02 07:16:51;;;;;;;4.35;2.90;;;16.60;99.90;;;;;;5114971;28;20192;-66
2022/09/02 07:19:18;;;;;;;3.05;2.40;;;16.70;99.90;;;;;;5114841;28;20212;-65
2022/09/02 07:21:44;;;;;;;2.75;2.22;;;16.80;99.90;;;;;;5113375;28;20672;-66
2022/09/02 07:24:12;;;;;;;3.50;2.40;;;16.90;99.90;;;;;;5114939;28;20177;-66
2022/09/02 07:26:38;;;;;;;3.90;2.30;;;17.00;99.90;;;;;;5114379;28;20569;-66
2022/09/02 07:29:07;;;;;;;3.25;2.50;;;17.00;99.90;;;;;;5113137;28;20668;-66
2022/09/02 07:31:38;;;;;;;2.70;2.22;;;17.10;99.90;;;;;;5114722;28;20191;-66
2022/09/02 07:34:05;;;;;;;2.67;2.33;;;17.20;99.90;;;;;;5114632;28;20179;-66
2022/09/02 07:36:34;;;;;;;2.97;2.17;;;17.20;99.90;;;;;;5114416;28;20205;-66
2022/09/02 07:39:00;;;;;;;2.80;2.20;;;17.30;99.90;;;;;;5114902;28;20172;-66
2022/09/02 07:41:26;;;;;;;3.45;2.22;;;17.40;99.90;;;;;;5114352;28;20774;-66
2022/09/02 07:43:53;;;;;;;2.65;2.30;;;17.40;99.90;;;;;;5114458;28;20187;-66
2022/09/02 07:46:19;;;;;;;3.65;2.20;;;17.40;99.90;;;;;;5117186;28;20271;-67
2022/09/02 07:48:45;;;;;;;3.95;2.40;;;17.50;99.90;;;;;;5115289;28;20257;-66
2022/09/02 07:51:11;;;;;;;4.28;2.55;;;17.50;99.90;;;;;;5114605;28;20168;-66
2022/09/02 07:53:37;;;;;;;5.03;2.67;;;17.60;99.90;;;;;;5113223;28;20590;-66
2022/09/02 07:56:03;;;;;;;3.70;2.30;;;17.60;99.90;;;;;;5114260;28;20194;-66
2022/09/02 07:58:29;;;;;;;5.03;2.20;;;17.70;99.90;;;;;;5114305;28;20186;-66
2022/09/02 08:00:55;;;;;;;7.38;2.60;;;17.70;99.90;;;;;;5113176;28;20172;-66
2022/09/02 08:03:23;;;;;;;8.50;2.60;;;17.80;99.90;;;;;;5113040;28;20607;-65
2022/09/02 08:05:49;;;;;;;6.25;2.88;;;17.80;99.90;;;;;;5113014;28;20192;-66
2022/09/02 08:08:19;;;;;;;4.80;2.60;;;17.90;99.90;;;;;;5112794;28;20200;-66
2022/09/02 08:10:47;;;;;;;4.97;2.33;;;17.90;99.90;;;;;;5113874;28;20183;-66
2022/09/02 08:13:13;;;;;;;2.65;2.45;;;18.00;99.90;;;;;;5114066;28;20164;-66
2022/09/02 08:15:39;;;;;;;4.57;2.40;;;18.00;99.90;;;;;;5114178;28;20196;-67
2022/09/02 08:18:06;;;;;;;3.08;2.20;;;18.00;99.90;;;;;;5114425;28;20542;-68
2022/09/02 08:20:31;;;;;;;7.18;2.30;;;18.10;99.90;;;;;;5114117;28;20245;-68
2022/09/02 08:22:57;;;;;;;3.45;2.17;;;18.20;99.90;;;;;;5112987;28;20633;-68
2022/09/02 08:25:24;;;;;;;4.63;2.35;;;18.20;99.90;;;;;;5112481;28;20219;-68
2022/09/02 08:27:52;;;;;;;2.38;2.17;;;18.30;99.90;;;;;;5112757;28;20287;-68
2022/09/02 08:30:18;;;;;;;4.15;2.08;;;18.40;99.90;;;;;;5114205;28;20255;-68
2022/09/02 08:32:43;;;;;;;2.60;2.20;;;18.50;99.90;;;;;;5114214;28;20172;-68
2022/09/02 08:35:10;;;;;;;4.68;2.17;;;18.60;99.90;;;;;;5112720;28;20196;-68
2022/09/02 08:37:36;;;;;;;3.47;2.28;;;18.60;99.90;;;;;;5114311;28;20238;-68
2022/09/02 08:40:06;;;;;;;3.10;2.05;;;18.70;99.90;;;;;;5113845;28;20208;-67
2022/09/02 08:42:54;;;;;;;3.40;2.00;;;18.80;99.90;;;;;;5114367;28;20173;-68
2022/09/02 08:45:26;;;;;;;5.15;2.47;;;18.90;99.90;;;;;;5112850;28;20280;-68
2022/09/02 08:48:11;;;;;;;4.32;2.42;;;19.10;99.90;;;;;;5113923;28;20185;-68
2022/09/02 08:50:41;;;;;;;7.47;2.80;;;19.20;99.90;;;;;;5112366;28;20164;-68
2022/09/02 08:53:15;;;;;;;2.88;2.08;;;19.30;99.90;;;;;;5113870;28;20161;-68
2022/09/02 08:56:08;;;;;;;5.20;2.55;;;19.40;99.90;;;;;;5113347;28;20676;-67
2022/09/02 08:58:48;;;;;;;4.80;2.45;;;19.60;99.90;;;;;;5112024;28;20556;-68
2022/09/02 09:01:25;;;;;;;4.25;2.30;;;19.80;99.90;;;;;;5116773;28;20157;-68
2022/09/02 09:04:35;;;;;;;4.38;2.20;;;19.90;99.90;;;;;;5117348;28;20164;-69
2022/09/02 09:07:23;;;;;;;4.10;2.38;;;20.10;99.90;;;;;;5082589;28;20185;-68
2022/09/02 09:10:04;;;;;;;2.45;2.20;;;20.30;99.90;;;;;;5115799;28;20176;-67
2022/09/02 09:12:55;;;;;;;6.65;1.85;;;20.40;99.90;;;;;;5117385;28;20197;-66
2022/09/02 09:15:39;;;;;;;5.68;2.33;;;20.60;99.90;;;;;;5115830;28;20192;-66
2022/09/02 09:18:07;;;;;;;2.95;2.35;;;20.80;99.90;;;;;;5117524;28;20678;-67
2022/09/02 09:20:38;;;;;;;3.47;2.20;;;20.90;99.90;;;;;;5116941;28;20188;-66
2022/09/02 09:23:32;;;;;;;6.78;2.20;;;21.00;99.90;;;;;;5117141;28;20179;-66
2022/09/02 09:26:17;;;;;;;2.30;1.90;;;21.20;99.90;;;;;;5116703;28;20227;-66
2022/09/02 09:28:49;;;;;;;3.10;1.95;;;21.30;99.90;;;;;;5115507;28;20625;-67
2022/09/02 09:31:20;;;;;;;2.67;1.95;;;21.30;99.90;;;;;;5117295;28;20602;-67
2022/09/02 09:34:00;;;;;;;2.38;2.10;;;21.40;99.90;;;;;;5117476;28;20731;-66
2022/09/02 09:36:43;;;;;;;2.95;1.85;;;21.60;99.90;;;;;;5115561;28;20196;-65
2022/09/02 09:39:21;;;;;;;2.92;2.03;;;21.80;99.90;;;;;;5117072;28;20262;-66
2022/09/02 09:41:49;;;;;;;2.63;2.17;;;22.10;99.90;;;;;;5116321;28;20173;-66
2022/09/02 09:44:43;;;;;;;3.40;2.17;;;22.30;99.90;;;;;;5115270;28;20718;-66
2022/09/02 09:47:18;;;;;;;5.25;2.58;;;22.40;99.90;;;;;;5116680;28;20153;-66
2022/09/02 09:49:45;;;;;;;3.38;2.22;;;22.40;99.90;;;;;;5116483;28;20168;-67
2022/09/02 09:52:28;;;;;;;2.60;2.10;;;22.40;99.90;;;;;;5115060;28;20180;-67
2022/09/02 09:55:11;;;;;;;2.95;2.00;;;22.50;99.90;;;;;;5114882;28;20168;-66
2022/09/02 09:57:43;;;;;;;3.55;2.10;;;22.40;99.90;;;;;;5116375;28;20160;-66
2022/09/02 10:00:20;;;;;;;3.40;2.10;;;22.40;99.90;;;;;;5116507;28;20197;-66
2022/09/02 10:02:52;;;;;;;2.97;1.90;;;22.40;99.90;;;;;;5116188;28;20164;-67
2022/09/02 10:05:39;;;;;;;3.42;2.20;;;22.50;99.90;;;;;;5116346;28;20607;-67
2022/09/02 10:08:20;;;;;;;3.55;2.15;;;22.60;99.90;;;;;;5114598;28;20196;-67
2022/09/02 10:11:07;;;;;;;4.05;2.00;;;22.70;99.90;;;;;;5115860;28;20161;-66
2022/09/02 10:13:35;;;;;;;5.25;2.25;;;22.80;99.90;;;;;;5116092;28;20553;-67
2022/09/02 10:16:07;;;;;;;8.20;2.00;;;22.90;99.90;;;;;;5114699;28;20193;-66
2022/09/02 10:18:57;;;;;;;3.90;1.95;;;22.90;99.90;;;;;;5114493;28;20267;-67
2022/09/02 10:21:58;;;;;;;3.53;1.90;;;22.80;99.90;;;;;;5115786;28;20169;-67
2022/09/02 10:24:45;;;;;;;2.67;1.85;;;22.70;99.90;;;;;;5115774;28;20612;-67
2022/09/02 10:27:16;;;;;;;4.15;2.00;;;22.60;99.90;;;;;;5115424;28;20186;-66
2022/09/02 10:30:00;;;;;;;2.65;1.73;;;22.50;99.90;;;;;;5115668;28;20198;-66
2022/09/02 10:32:52;;;;;;;2.72;2.00;;;22.40;99.90;;;;;;5115753;28;20164;-66
2022/09/02 10:35:24;;;;;;;1.90;1.80;;;22.30;99.90;;;;;;5090798;28;20261;-67
2022/09/02 10:37:49;;;;;;;1.85;1.67;;;22.40;99.90;;;;;;5115997;28;20153;-67
2022/09/02 10:40:26;;;;;;;4.07;1.83;;;22.60;99.90;;;;;;5113963;28;20181;-66
2022/09/02 10:43:17;;;;;;;4.20;1.80;;;22.80;99.90;;;;;;5115814;28;20156;-67
2022/09/02 10:45:49;;;;;;;3.10;1.75;;;23.00;99.90;;;;;;5115343;28;20196;-66
2022/09/02 10:48:34;;;;;;;3.67;2.08;;;23.20;99.90;;;;;;5115468;28;20648;-67
2022/09/02 10:51:05;;;;;;;1.95;1.50;;;23.40;99.90;;;;;;5115189;28;20184;-66
2022/09/02 10:53:31;;;;;;;4.72;2.00;;;23.60;99.90;;;;;;5113878;28;20176;-67
2022/09/02 10:56:04;;;;;;;2.25;1.67;;;23.70;99.90;;;;;;5114593;28;20184;-67
2022/09/02 10:58:49;;;;;;;2.40;1.85;;;23.90;99.90;;;;;;5115149;28;20704;-67
2022/09/02 11:01:32;;;;;;;2.70;1.92;;;24.10;99.90;;;;;;5115052;28;20169;-67
2022/09/02 11:04:26;;;;;;;4.78;1.63;;;24.50;99.90;;;;;;5113559;28;20690;-66
2022/09/02 11:06:56;;;;;;;3.33;1.85;;;24.70;99.90;;;;;;5113564;28;20200;-66
2022/09/02 11:09:29;;;;;;;3.38;1.80;;;25.00;99.90;;;;;;5114823;28;20227;-66
2022/09/02 11:12:14;;;;;;;3.45;1.65;;;25.20;99.90;;;;;;5114745;28;20663;-67
2022/09/02 11:14:48;;;;;;;1.80;1.70;;;25.40;99.90;;;;;;5114717;28;20153;-66
2022/09/02 11:17:23;;;;;;;2.42;1.55;;;25.50;99.90;;;;;;5114636;28;20177;-67
2022/09/02 11:20:02;;;;;;;2.03;1.80;;;25.60;99.90;;;;;;5114480;28;20179;-66
2022/09/02 11:22:52;;;;;;;2.10;1.50;;;25.70;99.90;;;;;;5114683;28;20205;-66
2022/09/02 11:25:37;;;;;;;2.47;2.05;;;25.20;99.90;;;;;;5114372;28;20619;-66
2022/09/02 11:28:21;;;;;;;3.40;1.45;;;24.90;99.90;;;;;;5114790;28;20199;-66
2022/09/02 11:31:13;;;;;;;1.60;1.50;;;24.90;99.90;;;;;;5115138;28;20506;-66
2022/09/02 11:33:50;;;;;;;2.25;1.65;;;25.10;99.90;;;;;;5098207;28;20188;-67
2022/09/02 11:36:17;;;;;;;2.50;1.73;;;25.00;99.90;;;;;;5114414;28;20282;-67
2022/09/02 11:38:47;;;;;;;2.17;1.48;;;24.80;99.90;;;;;;5114442;28;20176;-67
2022/09/02 11:41:22;;;;;;;2.67;1.85;;;24.70;99.90;;;;;;5114335;28;20247;-67
2022/09/02 11:44:00;;;;;;;1.85;1.75;;;24.60;99.90;;;;;;5114327;28;20172;-67
2022/09/02 11:47:01;;;;;;;1.60;1.50;;;24.30;99.90;;;;;;5114294;28;20279;-67
2022/09/02 11:49:40;;;;;;;1.83;1.40;;;24.10;99.90;;;;;;5114330;28;20713;-67
2022/09/02 11:52:06;;;;;;;1.67;1.58;;;24.20;99.90;;;;;;5115583;28;20165;-67
2022/09/02 11:54:42;;;;;;;2.05;1.63;;;24.60;99.90;;;;;;5114279;28;20179;-67
2022/09/02 11:57:13;;;;;;;2.90;1.67;;;25.20;99.90;;;;;;5115444;28;20148;-67
2022/09/02 11:59:51;;;;;;;4.90;1.55;;;25.90;99.90;;;;;;5114914;28;20259;-67
2022/09/02 12:02:40;;;;;;;3.20;1.50;;;26.30;99.90;;;;;;5114675;28;20571;-67
2022/09/02 12:05:33;;;;;;;1.75;1.42;;;26.40;99.90;;;;;;5108542;28;20335;-67
2022/09/02 12:08:27;;;;;;;2.15;1.58;;;26.10;99.90;;;;;;5114754;28;20237;-67
2022/09/02 12:10:58;;;;;;;1.75;1.65;;;26.20;99.90;;;;;;5094618;28;20653;-66
2022/09/02 12:13:40;;;;;;;1.88;1.67;;;25.90;99.90;;;;;;5114582;28;20156;-67
2022/09/02 12:16:15;;;;;;;2.20;1.80;;;25.50;99.90;;;;;;5114079;28;20672;-66
2022/09/02 12:19:07;;;;;;;4.03;1.80;;;25.20;99.90;;;;;;5114531;28;20186;-67
2022/09/02 12:21:34;;;;;;;4.78;1.52;;;24.80;99.90;;;;;;5095553;28;20602;-67
2022/09/02 12:24:06;;;;;;;1.90;1.70;;;24.50;99.90;;;;;;5112737;28;20184;-67
2022/09/02 12:26:35;;;;;;;3.72;1.95;;;24.80;99.90;;;;;;5113864;28;20669;-67
2022/09/02 12:29:29;;;;;;;2.45;1.65;;;25.20;99.90;;;;;;5113868;28;20741;-67
2022/09/02 12:31:56;;;;;;;2.58;1.63;;;25.70;99.90;;;;;;5114116;28;20153;-66
2022/09/02 12:34:24;;;;;;;2.38;1.60;;;26.10;99.90;;;;;;5113115;28;20682;-67
2022/09/02 12:36:53;;;;;;;2.95;1.73;;;26.50;99.90;;;;;;5117863;28;20196;-66
2022/09/02 12:39:22;;;;;;;3.05;1.73;;;26.90;99.90;;;;;;5117802;28;20280;-66
2022/09/02 12:42:05;;;;;;;3.78;1.50;;;27.40;99.90;;;;;;5117585;28;20168;-66
2022/09/02 12:45:09;;;;;;;2.42;1.60;;;27.70;99.90;;;;;;5117756;28;20160;-66
2022/09/02 12:47:58;;;;;;;2.83;1.92;;;27.80;99.90;;;;;;5118237;28;20224;-66
2022/09/02 12:50:31;;;;;;;1.70;1.40;;;27.90;99.90;;;;;;5118683;28;20574;-66
2022/09/02 12:53:33;;;;;;;2.88;1.70;;;27.60;99.90;;;;;;5117630;28;20621;-67
2022/09/02 12:56:03;;;;;;;1.83;1.33;;;26.90;99.90;;;;;;5117809;28;20226;-66
2022/09/02 12:58:44;;;;;;;2.60;1.70;;;26.40;99.90;;;;;;5117453;28;20214;-66
2022/09/02 13:01:36;;;;;;;1.95;1.58;;;26.10;99.90;;;;;;5117997;28;20601;-66
2022/09/02 13:04:27;;;;;;;1.90;1.70;;;25.70;99.90;;;;;;5117980;28;20195;-66
2022/09/02 13:07:04;;;;;;;1.90;1.50;;;25.30;99.90;;;;;;5117336;28;20199;-66
2022/09/02 13:09:40;;;;;;;3.40;1.73;;;25.00;99.90;;;;;;5117664;28;20183;-66
2022/09/02 13:12:34;;;;;;;2.95;1.75;;;24.80;99.90;;;;;;5116006;28;20172;-66